createdAt,value
2023-04-04T00:05:03.957Z,1007.96
2023-04-04T00:10:08.086Z,1008.39
2023-04-04T00:15:12.288Z,1008.67
2023-04-04T00:20:16.417Z,1008.95
2023-04-04T00:25:20.600Z,1009.30
2023-04-04T00:30:24.771Z,1009.48
2023-04-04T00:35:28.982Z,1009.73
2023-04-04T00:40:33.100Z,1009.95
2023-04-04T00:45:37.345Z,1010.20
2023-04-04T00:50:41.666Z,1010.29
2023-04-04T00:55:45.630Z,1010.54
2023-04-04T01:00:49.869Z,1010.82
2023-04-04T01:05:53.923Z,1010.96
2023-04-04T01:10:56.225Z,1011.03
2023-04-04T01:16:00.402Z,1011.22
2023-04-04T01:21:02.651Z,1011.36
2023-04-04T01:26:06.835Z,1011.57
2023-04-04T01:36:15.889Z,1011.91
2023-04-04T01:41:19.306Z,1012.03
2023-04-04T01:46:23.573Z,1012.00
2023-04-04T01:51:27.664Z,1012.10
2023-04-04T01:56:31.866Z,1012.14
2023-04-04T02:01:36.031Z,1012.11
2023-04-04T02:06:40.170Z,1012.14
2023-04-04T02:11:44.322Z,1012.18
2023-04-04T02:16:48.475Z,1012.16
2023-04-04T02:21:52.689Z,1012.21
2023-04-04T02:26:56.813Z,1012.20
2023-04-04T02:32:01.001Z,1012.17
2023-04-04T02:37:05.158Z,1012.22
2023-04-04T02:42:09.347Z,1012.15
2023-04-04T02:47:13.542Z,1012.19
2023-04-04T02:52:17.678Z,1012.15
2023-04-04T02:57:21.848Z,1012.18
2023-04-04T03:02:26.086Z,1012.08
2023-04-04T03:07:30.146Z,1012.09
2023-04-04T03:12:32.429Z,1012.09
2023-04-04T03:17:36.903Z,1012.09
2023-04-04T03:22:38.893Z,1012.15
2023-04-04T03:27:43.141Z,1012.14
2023-04-04T03:32:47.223Z,1012.17
2023-04-04T03:37:51.390Z,1012.03
2023-04-04T03:42:55.542Z,1011.95
2023-04-04T16:03:03.725Z,1015.97
2023-04-04T16:08:06.039Z,1016.01
2023-04-04T16:13:10.202Z,1015.98
2023-04-04T16:18:14.422Z,1015.85
2023-04-04T16:23:18.507Z,1015.88
2023-04-04T16:28:22.688Z,1015.83
2023-04-04T16:33:26.830Z,1015.87
2023-04-04T16:38:30.976Z,1015.77
2023-04-04T16:43:35.136Z,1015.68
2023-04-04T16:48:39.327Z,1015.76
2023-04-04T16:53:43.496Z,1015.74
2023-04-04T16:58:47.692Z,1015.72
2023-04-04T17:03:51.881Z,1015.77
2023-04-04T17:08:55.974Z,1015.68
2023-04-04T17:14:00.192Z,1015.73
2023-04-04T17:24:08.442Z,1015.61
2023-04-04T17:29:12.609Z,1015.63
2023-04-04T17:34:16.806Z,1015.59
2023-04-04T17:39:20.942Z,1015.68
2023-04-04T17:44:25.109Z,1015.53
2023-04-04T17:49:29.258Z,1015.57
2023-04-04T17:54:33.402Z,1015.46
2023-04-04T17:59:35.709Z,1015.56
2023-04-04T18:04:39.868Z,1015.48
2023-04-04T18:09:42.105Z,1015.41
2023-04-04T18:14:46.315Z,1015.47
2023-04-04T18:19:50.445Z,1015.50
2023-04-04T18:24:54.633Z,1015.40
2023-04-04T18:29:58.800Z,1015.41
2023-04-04T18:35:02.948Z,1015.45
2023-04-04T18:40:07.118Z,1015.36
2023-04-04T18:45:11.253Z,1015.32
2023-04-04T18:50:15.428Z,1015.13
2023-04-04T18:55:19.629Z,1013.84
2023-04-04T19:00:23.751Z,1011.72
2023-04-04T19:05:27.945Z,1009.92
2023-04-04T19:10:32.204Z,1007.82
2023-04-04T19:15:36.230Z,1005.73
2023-04-04T19:20:40.419Z,1005.08
2023-04-04T19:25:44.592Z,1005.10
2023-04-04T19:30:48.855Z,1004.99
2023-04-04T19:35:52.893Z,1004.81
2023-04-04T19:40:57.086Z,1004.60
2023-04-04T19:46:01.278Z,1004.53
2023-04-04T19:51:05.382Z,1004.36
2023-04-04T19:56:07.684Z,1004.37
2023-04-04T20:01:11.845Z,1004.32
2023-04-04T20:06:16.020Z,1004.27
2023-04-04T20:11:20.206Z,1004.29
2023-04-04T20:16:24.332Z,1004.28
2023-04-04T20:21:28.501Z,1004.12
2023-04-04T20:26:32.653Z,1004.05
2023-04-04T20:31:36.828Z,1004.01
2023-04-04T20:36:40.996Z,1003.89
2023-04-04T20:41:45.135Z,1003.90
2023-04-04T20:46:49.295Z,1003.94
2023-04-04T20:51:53.496Z,1004.02
2023-04-04T20:56:57.642Z,1004.14
2023-04-04T21:02:01.784Z,1004.18
2023-04-04T21:07:05.968Z,1003.99
2023-04-04T21:12:10.114Z,1004.06
2023-04-04T21:17:14.305Z,1004.15
2023-04-04T21:22:18.450Z,1004.17
2023-04-04T21:27:22.604Z,1004.45
2023-04-04T21:32:26.797Z,1004.65
2023-04-04T21:37:30.926Z,1004.88
2023-04-04T21:42:33.240Z,1004.91
2023-04-04T21:47:37.381Z,1004.84
2023-04-04T21:52:39.649Z,1004.89
2023-04-04T21:57:43.791Z,1004.98
2023-04-04T22:02:48.044Z,1005.16
2023-04-04T22:07:52.141Z,1005.42
2023-04-04T22:12:56.315Z,1005.68
2023-04-04T22:18:00.554Z,1005.83
2023-04-04T22:23:04.669Z,1005.93
2023-04-04T22:28:08.832Z,1006.08
2023-04-04T22:33:12.973Z,1006.05
2023-04-04T22:38:17.117Z,1006.12
2023-04-04T22:43:21.304Z,1006.10
2023-04-04T22:48:25.463Z,1006.10
2023-04-04T22:53:29.631Z,1006.21
2023-04-04T22:58:33.811Z,1006.20
2023-04-04T23:03:37.960Z,1006.25
2023-04-04T23:08:42.127Z,1006.36
2023-04-04T23:13:46.340Z,1006.27
2023-04-04T23:18:50.469Z,1006.22
2023-04-04T23:23:54.678Z,1006.18
2023-04-04T23:28:58.824Z,1006.23
2023-04-04T23:34:03.006Z,1006.27
2023-04-04T23:39:05.240Z,1006.21
2023-04-04T23:44:09.399Z,1006.29
2023-04-04T23:49:11.684Z,1006.24
2023-04-04T23:54:15.819Z,1006.35
2023-04-04T23:59:20.040Z,1006.39
